Grandeur Of The Seas — C6SE3 — position and weather

sailwx.info

Track history (hours):
 
Tides and Currents Weather Stations Pressure Air Temp Water Temp Dewpoint Dewpoint Depression Visibility Wind Speed Wind Dir Waves Ship Positions

Grandeur Of The Seas

Operator: Royal Caribbean Cruises Ltd

Last reported at 2017-Aug-11 10:07 UTC. Time now 2017-Aug-17 06:05 UTC.
Position N 36°18' W 074°25'.

Type: Passenger vessel. MMSI: 311315000.

Date/timePositionNaut miles runAvg speedWind from/ knotsBaromVisibWave heightAir tempDewpointWater temp
2017-Aug-11 10:07N 36°18' W 074°25'217.8
2017-Aug-11 10:01N 36°19' W 074°27'917.9
2017-Aug-11 09:31N 36°23' W 074°37'917.7
2017-Aug-11 09:00N 36°27' W 074°47'917.5
2017-Aug-11 08:28N 36°31' W 074°58'917.6
2017-Aug-11 07:58N 36°34' W 075°08'817.6
2017-Aug-11 07:30N 36°38' W 075°17'817.4
2017-Aug-11 07:00N 36°42' W 075°27'917.1
2017-Aug-11 06:30N 36°45' W 075°37'816.6
2017-Aug-11 06:00N 36°49' W 075°46'815.8
2017-Aug-11 05:30N 36°53' W 075°54'713.1
2017-Aug-11 05:00N 36°58' W 075°60'714.4
2017-Aug-11 04:30N 37°04' W 076°05'816.0
2017-Aug-11 04:00N 37°11' W 076°09'1917.3
2017-Aug-11 02:55N 37°29' W 076°03'8418.7
2017-Aug-10 22:26N 38°51' W 076°24'919.2
2017-Aug-10 21:59N 39°00' W 076°23'814.7
2017-Aug-10 21:27N 39°08' W 076°24'512.2
2017-Aug-10 21:01N 39°12' W 076°29'611.1
2017-Aug-10 20:31N 39°15' W 076°34'1 2.6
2017-Aug-10 20:01N 39°16' W 076°36'0 0.0
2017-Aug-10 19:29N 39°16' W 076°36'0 0.0
2017-Aug-10 19:00N 39°16' W 076°36'0 0.0
2017-Aug-10 18:27N 39°16' W 076°36'0 0.0
2017-Aug-10 18:00N 39°16' W 076°36'0 0.0
2017-Aug-10 17:30N 39°16' W 076°36'0 0.0
2017-Aug-10 16:59N 39°16' W 076°36'0 0.0
2017-Aug-10 16:30N 39°16' W 076°36'0 0.0
2017-Aug-10 15:51N 39°16' W 076°36'0 0.0
2017-Aug-10 15:30N 39°16' W 076°36'0 0.0
2017-Aug-10 15:00N 39°16' W 076°36'0 0.0
2017-Aug-10 14:30N 39°16' W 076°36'0 0.0
2017-Aug-10 13:57N 39°16' W 076°36'0 0.0
2017-Aug-10 13:30N 39°16' W 076°36'0 0.0
2017-Aug-10 13:00N 39°16' W 076°36'0 0.0
2017-Aug-10 12:30N 39°16' W 076°36'0 0.0
2017-Aug-10 11:57N 39°16' W 076°36'0 0.0
2017-Aug-10 11:30N 39°16' W 076°36'0 0.0
2017-Aug-10 11:00N 39°16' W 076°36'3 3.8
2017-Aug-10 10:20N 39°14' W 076°33'2 5.7
2017-Aug-10 09:57N 39°13' W 076°31'510.4
2017-Aug-10 09:31N 39°11' W 076°26'714.0
2017-Aug-10 09:00N 39°04' W 076°24'815.6
2017-Aug-10 08:30N 38°56' W 076°24'816.1
2017-Aug-10 08:00N 38°48' W 076°25'1016.4
2017-Aug-10 07:24N 38°38' W 076°25'716.1
2017-Aug-10 06:58N 38°31' W 076°25'816.8
2017-Aug-10 06:30N 38°24' W 076°21'714.1
2017-Aug-10 06:00N 38°17' W 076°18'816.7
2017-Aug-10 05:30N 38°10' W 076°14'917.3
2017-Aug-10 05:01N 38°01' W 076°12'917.2
2017-Aug-10 04:30N 37°53' W 076°09'1017.1
2017-Aug-10 03:56N 37°43' W 076°11'1416.4
2017-Aug-10 03:04N 37°30' W 076°03'116.9
2017-Aug-10 03:00N 37°30' W 076°03'917.7
2017-Aug-10 02:30N 37°21' W 076°05'1319.3
2017-Aug-10 01:50N 37°08' W 076°08'720.5
2017-Aug-10 01:30N 37°03' W 076°04'917.6
2017-Aug-10 01:00N 36°56' W 075°56'  
2017-Aug-07 14:00N 39°14' W 076°32'2 4.4
2017-Aug-07 13:30N 39°12' W 076°30'3 5.6
2017-Aug-07 13:00N 39°14' W 076°33'0 0.3
2017-Aug-07 12:30N 39°14' W 076°33'3 5.9
2017-Aug-07 12:00N 39°16' W 076°36'3 6.7
2017-Aug-07 11:30N 39°14' W 076°33'2 3.8
2017-Aug-07 11:00N 39°15' W 076°34'5 9.1
2017-Aug-07 10:30N 39°12' W 076°30'3 6.2
2017-Aug-07 10:00N 39°14' W 076°33'1 2.7
2017-Aug-07 09:30N 39°15' W 076°34'1 1.1
2017-Aug-07 09:00N 39°15' W 076°35'1 1.5
2017-Aug-07 08:30N 39°15' W 076°36'0 0.5
2017-Aug-07 08:00N 39°16' W 076°36'2 3.8
2017-Aug-07 07:30N 39°15' W 076°34'2 4.1
2017-Aug-07 07:00N 39°16' W 076°36'5 9.7
2017-Aug-07 06:30N 39°13' W 076°31'5 9.8
2017-Aug-07 06:00N 39°16' W 076°36'612.6
2017-Aug-07 05:30N 39°12' W 076°30'612.6
2017-Aug-07 05:00N 39°16' W 076°36'0 0.0
2017-Aug-07 04:30N 39°16' W 076°36'3 6.7
2017-Aug-07 04:00N 39°14' W 076°33'1 1.5
2017-Aug-07 03:30N 39°14' W 076°33'5 9.9
2017-Aug-07 03:00N 39°11' W 076°28'4 7.5
2017-Aug-07 02:30N 39°13' W 076°32'3 4.3
2017-Aug-07 01:50N 39°15' W 076°35'0 0.8
2017-Aug-07 01:30N 39°15' W 076°35'1 2.1
2017-Aug-07 01:00N 39°16' W 076°36'713.1
2017-Aug-07 00:30N 39°12' W 076°29'611.3
2017-Aug-07 00:00N 39°15' W 076°35'1 2.3
2017-Aug-06 23:30N 39°16' W 076°36'0 0.3
2017-Aug-06 23:00N 39°16' W 076°36'2 4.9
2017-Aug-06 22:30N 39°14' W 076°33'3 5.2
2017-Aug-06 22:00N 39°16' W 076°36'3 6.7
2017-Aug-06 21:30N 39°14' W 076°33'2 3.4
2017-Aug-06 21:00N 39°13' W 076°31'5 9.5
2017-Aug-06 20:30N 39°16' W 076°36'816.0
2017-Aug-06 20:00N 39°11' W 076°27'612.3
2017-Aug-06 19:30N 39°15' W 076°34'3 6.3
2017-Aug-06 19:00N 39°12' W 076°31'4 7.9
2017-Aug-06 18:30N 39°15' W 076°34'1 2.5
2017-Aug-06 18:00N 39°15' W 076°33'4 7.1
2017-Aug-06 17:30N 39°12' W 076°30'611.2
2017-Aug-06 17:00N 39°15' W 076°36'2 3.3
2017-Aug-06 16:30N 39°15' W 076°34'5 9.7
2017-Aug-06 16:00N 39°12' W 076°29'713.5
2017-Aug-06 15:30N 39°16' W 076°36'1 1.2
2017-Aug-06 15:00N 39°15' W 076°35'1 2.5
2017-Aug-06 14:30N 39°15' W 076°34'3 5.8
2017-Aug-06 14:00N 39°13' W 076°32'3 6.8
2017-Aug-06 13:30N 39°15' W 076°34'0 0.4
2017-Aug-06 13:00N 39°15' W 076°35'715.0
2017-Aug-06 12:30N 39°11' W 076°27'3 5.4
2017-Aug-06 12:00N 39°12' W 076°30'3 6.7
2017-Aug-06 11:30N 39°14' W 076°33'0 0.6
2017-Aug-06 11:00N 39°15' W 076°33'2 4.7
2017-Aug-06 10:30N 39°16' W 076°36'2 4.6
2017-Aug-06 10:00N 39°15' W 076°33'3 5.3
2017-Aug-06 09:30N 39°13' W 076°31'3 6.3
2017-Aug-06 09:00N 39°15' W 076°34'1 2.9
2017-Aug-06 08:30N 39°14' W 076°33'3 6.0
2017-Aug-06 08:00N 39°16' W 076°36'1 1.2
2017-Aug-06 07:30N 39°15' W 076°35'1 1.5
2017-Aug-06 07:00N 39°16' W 076°36'4 7.5
2017-Aug-06 06:30N 39°13' W 076°32'4 7.3
2017-Aug-06 06:00N 39°16' W 076°36'0 0.1
2017-Aug-06 05:30N 39°16' W 076°36'1 1.4
2017-Aug-06 05:00N 39°15' W 076°35'0 0.8
2017-Aug-06 04:30N 39°15' W 076°36'3 5.3
2017-Aug-06 04:00N 39°14' W 076°33'0 1.0
2017-Aug-06 03:30N 39°14' W 076°33'1 1.4
2017-Aug-06 03:00N 39°15' W 076°34'1 1.8
2017-Aug-06 02:30N 39°15' W 076°35'1 2.1
2017-Aug-06 02:00N 39°16' W 076°36'3 6.1
2017-Aug-06 01:30N 39°14' W 076°33'2 4.5
2017-Aug-06 01:00N 39°12' W 076°31'510.5
2017-Aug-06 00:30N 39°16' W 076°36'2 3.2
2017-Aug-06 00:00N 39°15' W 076°34'2 3.2
2017-Aug-05 23:30N 39°16' W 076°36'2 3.2
2017-Aug-05 23:00N 39°15' W 076°34'713.9
2017-Aug-05 22:30N 39°11' W 076°27'917.0
2017-Aug-05 22:00N 39°16' W 076°36'815.9
2017-Aug-05 21:30N 39°11' W 076°28'4 7.9
2017-Aug-05 21:00N 39°13' W 076°32'3 6.8
2017-Aug-05 20:30N 39°15' W 076°36'2 4.6
2017-Aug-05 20:00N 39°14' W 076°33'3 6.3
2017-Aug-05 19:30N 39°12' W 076°30'4 8.5
2017-Aug-05 19:00N 39°15' W 076°34'1 2.3
2017-Aug-05 18:30N 39°14' W 076°33'1 1.9
2017-Aug-05 18:00N 39°15' W 076°34'2 3.2
2017-Aug-05 17:30N 39°14' W 076°32'2 4.5
2017-Aug-05 17:00N 39°15' W 076°34'1 2.6
2017-Aug-05 16:30N 39°14' W 076°33'0 0.2
2017-Aug-05 16:00N 39°14' W 076°33'0 0.8
2017-Aug-05 15:30N 39°14' W 076°33'3 6.2
2017-Aug-05 15:00N 39°16' W 076°36'0 0.0
2017-Aug-05 14:30N 39°16' W 076°36'0 0.0
2017-Aug-05 14:00N 39°16' W 076°36'4 7.1
2017-Aug-05 13:30N 39°14' W 076°32'1 2.8
2017-Aug-05 13:00N 39°15' W 076°33'1 1.5
2017-Aug-05 12:30N 39°14' W 076°33'3 5.9
2017-Aug-05 12:00N 39°16' W 076°36'0 0.0
2017-Aug-05 11:30N 39°16' W 076°36'4 7.1
2017-Aug-05 11:00N 39°14' W 076°32'3 5.9
2017-Aug-05 10:31N 39°15' W 076°35'4 7.1
2017-Aug-05 10:00N 39°13' W 076°32'510.1
2017-Aug-05 09:31N 39°11' W 076°26'4 8.4
2017-Aug-05 09:00N 39°13' W 076°31'1632.2
2017-Aug-05 08:30N 38°58' W 076°23'815.4
2017-Aug-05 08:00N 38°50' W 076°24'2548.5
2017-Aug-05 07:30N 39°14' W 076°33'3 6.5
2017-Aug-05 07:00N 39°12' W 076°30'4 8.1
2017-Aug-05 06:30N 39°15' W 076°34'2 3.7
2017-Aug-05 06:00N 39°14' W 076°32'1 2.4
2017-Aug-05 05:30N 39°15' W 076°33'0 0.1
2017-Aug-05 05:00N 39°15' W 076°33'1 2.5
2017-Aug-05 04:30N 39°14' W 076°32'1 1.0
2017-Aug-05 04:00N 39°14' W 076°33'3 4.7
2017-Aug-05 03:25N 39°12' W 076°30'2 5.5
2017-Aug-05 03:00N 39°14' W 076°32'1 2.1
2017-Aug-05 02:30N 39°14' W 076°33'1 1.6
2017-Aug-05 02:00N 39°15' W 076°34'1 2.7
2017-Aug-05 01:30N 39°14' W 076°33'3 5.6
2017-Aug-05 01:00N 39°12' W 076°30'135275.4
2017-Aug-05 00:30N 36°59' W 076°01'137267.4
2017-Aug-05 00:00N 39°14' W 076°33'1 2.1
2017-Aug-04 23:30N 39°15' W 076°33'2 3.2
2017-Aug-04 23:00N 39°13' W 076°32'1 1.7
2017-Aug-04 22:30N 39°14' W 076°33'3 6.0
2017-Aug-04 22:00N 39°12' W 076°30'0 0.0
2017-Aug-04 21:30N 39°12' W 076°30'2 4.6
2017-Aug-04 21:00N 39°14' W 076°32'2 4.6
2017-Aug-04 20:30N 39°12' W 076°30'4 7.2
2017-Aug-04 20:00N 39°15' W 076°33'1 1.1
2017-Aug-04 19:30N 39°14' W 076°33'1 1.5
2017-Aug-04 19:00N 39°15' W 076°33'0 0.7
2017-Aug-04 18:30N 39°14' W 076°33'1 1.2
2017-Aug-04 18:00N 39°14' W 076°33'1 2.0
2017-Aug-04 17:30N 39°15' W 076°34'0 0.4
2017-Aug-04 17:00N 39°15' W 076°34'2 3.7
2017-Aug-04 16:30N 39°14' W 076°32'150309.7
2017-Aug-04 16:00N 37°54' W 073°49'715.0
2017-Aug-04 15:31N 37°58' W 073°41'155300.1
2017-Aug-04 15:00N 39°14' W 076°33'1 0.9
2017-Aug-04 14:00N 39°15' W 076°34'3 6.1
2017-Aug-04 13:30N 39°13' W 076°31'2 3.6
2017-Aug-04 13:00N 39°14' W 076°33'0 0.0
2017-Aug-04 12:30N 39°14' W 076°33'0 0.0
2017-Aug-04 12:00N 39°14' W 076°33'3 6.0
2017-Aug-04 11:30N 39°12' W 076°30'0 0.0
2017-Aug-04 11:00N 39°12' W 076°30'0 0.0
2017-Aug-04 10:30N 39°12' W 076°30'3 6.9
2017-Aug-04 10:00N 39°14' W 076°33'3 6.9
2017-Aug-04 09:30N 39°12' W 076°30'2 4.3
2017-Aug-04 09:00N 39°13' W 076°32'2 4.3
2017-Aug-04 08:30N 39°12' W 076°30'4 7.5
2017-Aug-04 08:00N 39°15' W 076°33'1 1.3
2017-Aug-04 07:30N 39°14' W 076°33'1 2.9
2017-Aug-04 07:00N 39°15' W 076°34'1 2.7
2017-Aug-04 06:30N 39°14' W 076°33'0 0.3
2017-Aug-04 06:00N 39°14' W 076°33'3 6.7
2017-Aug-04 05:30N 39°12' W 076°30'2 4.8
2017-Aug-04 05:00N 39°14' W 076°32'0 0.3
2017-Aug-04 04:30N 39°14' W 076°32'3 5.1
2017-Aug-04 04:00N 39°12' W 076°30'2 4.7
2017-Aug-04 03:30N 39°14' W 076°32'1 1.8
2017-Aug-04 03:00N 39°14' W 076°33'0 0.5
2017-Aug-04 02:30N 39°14' W 076°33'3 6.0
2017-Aug-04 02:00N 39°12' W 076°30'2 4.3
2017-Aug-04 01:30N 39°13' W 076°32'0 0.0
2017-Aug-04 01:00N 39°13' W 076°32'1 1.2
2017-Aug-04 00:30N 39°14' W 076°33'3 5.5
2017-Aug-04 00:00N 39°12' W 076°30'3 5.5
2017-Aug-03 23:30N 39°14' W 076°33'0 0.0
2017-Aug-03 23:00N 39°14' W 076°33'1 2.7
2017-Aug-03 22:30N 39°15' W 076°34'1 2.7
2017-Aug-03 22:00N 39°14' W 076°33'0 0.8
2017-Aug-03 21:30N 39°14' W 076°32'1 1.8
2017-Aug-03 21:00N 39°13' W 076°32'2 4.7
2017-Aug-03 20:30N 39°15' W 076°34'1 1.5
2017-Aug-03 20:00N 39°14' W 076°33'0 0.0
2017-Aug-03 19:30N 39°14' W 076°33'0 0.5
2017-Aug-03 19:00N 39°14' W 076°33'3 6.7
2017-Aug-03 18:30N 39°12' W 076°30'4 7.7
2017-Aug-03 18:00N 39°15' W 076°34'4 7.7
2017-Aug-03 17:30N 39°12' W 076°30'1 2.9
2017-Aug-03 17:00N 39°13' W 076°32'2 3.1
2017-Aug-03 16:30N 39°14' W 076°33'0 0.0
2017-Aug-03 16:00N 39°14' W 076°33'2 3.7
2017-Aug-03 15:30N 39°13' W 076°31'2 3.1
2017-Aug-03 15:00N 39°14' W 076°33'1 1.4
2017-Aug-03 14:00N 39°15' W 076°34'0 1.0
2017-Aug-03 13:30N 39°15' W 076°33'0 0.4
2017-Aug-03 13:00N 39°15' W 076°34'1 2.2
2017-Aug-03 12:30N 39°14' W 076°33'1 1.8
2017-Aug-03 12:00N 39°15' W 076°33'0 0.3
2017-Aug-03 11:30N 39°15' W 076°33'2 3.0
2017-Aug-03 11:00N 39°14' W 076°32'1 1.3
2017-Aug-03 10:30N 39°14' W 076°33'0 0.3
2017-Aug-03 10:00N 39°14' W 076°33'1 1.0
2017-Aug-03 09:30N 39°14' W 076°33'1 1.4
2017-Aug-03 09:00N 39°14' W 076°32'0 0.8
2017-Aug-03 08:30N 39°13' W 076°32'0 0.4
2017-Aug-03 08:00N 39°14' W 076°32'2 4.0
2017-Aug-03 07:25N 39°12' W 076°30'2 5.2
2017-Aug-03 07:00N 39°13' W 076°32'1 1.8
2017-Aug-03 06:30N 39°14' W 076°33'0 0.6
2017-Aug-03 06:00N 39°14' W 076°33'0 0.9
2017-Aug-03 05:30N 39°14' W 076°32'0 0.4
2017-Aug-03 05:00N 39°13' W 076°32'1 1.2
2017-Aug-03 04:30N 39°14' W 076°33'1 2.5
2017-Aug-03 04:00N 39°15' W 076°34'3 5.2
2017-Aug-03 03:30N 39°13' W 076°32'3 6.0
2017-Aug-03 03:00N 39°15' W 076°34'1 2.9
2017-Aug-03 02:30N 39°14' W 076°33'0 0.3
2017-Aug-03 02:00N 39°14' W 076°33'0 0.8
2017-Aug-03 01:30N 39°14' W 076°33'3 5.5
2017-Aug-03 01:00N 39°12' W 076°30'2 4.3
2017-Aug-03 00:30N 39°13' W 076°32'2 3.6
2017-Aug-03 00:00N 39°15' W 076°34'2 3.4
2017-Aug-02 23:30N 39°14' W 076°32'2 4.0
2017-Aug-02 23:00N 39°15' W 076°34'1 1.9
2017-Aug-02 22:30N 39°14' W 076°33'0 0.7
2017-Aug-02 22:00N 39°14' W 076°33'0 1.0
2017-Aug-02 21:30N 39°15' W 076°33'1 2.7
2017-Aug-02 21:00N 39°13' W 076°32'1 1.2
2017-Aug-02 20:30N 39°14' W 076°33'1 2.4
2017-Aug-02 20:00N 39°15' W 076°34'0 0.9
2017-Aug-02 19:30N 39°15' W 076°34'2 3.2
2017-Aug-02 19:00N 39°14' W 076°33'0 0.9
2017-Aug-02 18:30N 39°14' W 076°32'1 2.0
2017-Aug-02 18:00N 39°14' W 076°33'0 0.5
2017-Aug-02 17:30N 39°14' W 076°33'2 3.6
2017-Aug-02 17:00N 39°13' W 076°31'0 1.0
2017-Aug-02 16:30N 39°12' W 076°31'1 2.7
2017-Aug-02 16:00N 39°13' W 076°32'1 2.2
2017-Aug-02 15:30N 39°14' W 076°33'0 0.9
2017-Aug-02 15:00N 39°15' W 076°33'1 0.8
2017-Aug-02 13:30N 39°14' W 076°32'0 0.3
2017-Aug-02 13:00N 39°14' W 076°32'1 1.9
2017-Aug-02 12:30N 39°14' W 076°33'1 2.3
2017-Aug-02 12:00N 39°15' W 076°34'2 3.0
2017-Aug-02 11:30N 39°14' W 076°33'1 1.2
2017-Aug-02 11:00N 39°15' W 076°33'1 2.4
2017-Aug-02 10:30N 39°14' W 076°32'2 4.8
2017-Aug-02 10:00N 39°12' W 076°30'4 7.4
2017-Aug-02 09:30N 39°15' W 076°33'0 0.5
2017-Aug-02 09:00N 39°15' W 076°34'0 0.6
2017-Aug-02 08:30N 39°15' W 076°33'0 0.3
2017-Aug-02 08:00N 39°14' W 076°33'1 2.6
2017-Aug-02 07:30N 39°13' W 076°32'0 0.5
2017-Aug-02 07:00N 39°14' W 076°32'1 2.9
2017-Aug-02 06:30N 39°15' W 076°34'4 7.7
2017-Aug-02 06:00N 39°12' W 076°30'3 5.5
2017-Aug-02 05:30N 39°14' W 076°33'2 3.1
2017-Aug-02 05:00N 39°15' W 076°34'1 1.6
2017-Aug-02 04:30N 39°15' W 076°33'0 1.0
2017-Aug-02 04:00N 39°14' W 076°33'1 1.7
2017-Aug-02 03:30N 39°13' W 076°32'1 2.4
2017-Aug-02 03:00N 39°14' W 076°33'3 5.1
2017-Aug-02 02:30N 39°12' W 076°31'3 5.3
2017-Aug-02 02:00N 39°14' W 076°33'  
Track history (hours):
 
Tides and Currents Weather Stations Pressure Air Temp Water Temp Dewpoint Dewpoint Depression Visibility Wind Speed Wind Dir Waves Ship Positions

Grandeur Of The Seas

Operator: Royal Caribbean Cruises Ltd

Last reported at 2017-Aug-11 10:07 UTC. Time now 2017-Aug-17 06:05 UTC.
Position N 36°18' W 074°25'.

Type: Passenger vessel. MMSI: 311315000.

Date/timePositionNaut miles runAvg speedWind from/ knotsBaromVisibWave heightAir tempDewpointWater temp
2017-Aug-11 10:07N 36°18' W 074°25'217.8
2017-Aug-11 10:01N 36°19' W 074°27'917.9
2017-Aug-11 09:31N 36°23' W 074°37'917.7
2017-Aug-11 09:00N 36°27' W 074°47'917.5
2017-Aug-11 08:28N 36°31' W 074°58'917.6
2017-Aug-11 07:58N 36°34' W 075°08'817.6
2017-Aug-11 07:30N 36°38' W 075°17'817.4
2017-Aug-11 07:00N 36°42' W 075°27'917.1
2017-Aug-11 06:30N 36°45' W 075°37'816.6
2017-Aug-11 06:00N 36°49' W 075°46'815.8
2017-Aug-11 05:30N 36°53' W 075°54'713.1
2017-Aug-11 05:00N 36°58' W 075°60'714.4
2017-Aug-11 04:30N 37°04' W 076°05'816.0
2017-Aug-11 04:00N 37°11' W 076°09'1917.3
2017-Aug-11 02:55N 37°29' W 076°03'8418.7
2017-Aug-10 22:26N 38°51' W 076°24'919.2
2017-Aug-10 21:59N 39°00' W 076°23'814.7
2017-Aug-10 21:27N 39°08' W 076°24'512.2
2017-Aug-10 21:01N 39°12' W 076°29'611.1
2017-Aug-10 20:31N 39°15' W 076°34'1 2.6
2017-Aug-10 20:01N 39°16' W 076°36'0 0.0
2017-Aug-10 19:29N 39°16' W 076°36'0 0.0
2017-Aug-10 19:00N 39°16' W 076°36'0 0.0
2017-Aug-10 18:27N 39°16' W 076°36'0 0.0
2017-Aug-10 18:00N 39°16' W 076°36'0 0.0
2017-Aug-10 17:30N 39°16' W 076°36'0 0.0
2017-Aug-10 16:59N 39°16' W 076°36'0 0.0
2017-Aug-10 16:30N 39°16' W 076°36'0 0.0
2017-Aug-10 15:51N 39°16' W 076°36'0 0.0
2017-Aug-10 15:30N 39°16' W 076°36'0 0.0
2017-Aug-10 15:00N 39°16' W 076°36'0 0.0
2017-Aug-10 14:30N 39°16' W 076°36'0 0.0
2017-Aug-10 13:57N 39°16' W 076°36'0 0.0
2017-Aug-10 13:30N 39°16' W 076°36'0 0.0
2017-Aug-10 13:00N 39°16' W 076°36'0 0.0
2017-Aug-10 12:30N 39°16' W 076°36'0 0.0
2017-Aug-10 11:57N 39°16' W 076°36'0 0.0
2017-Aug-10 11:30N 39°16' W 076°36'0 0.0
2017-Aug-10 11:00N 39°16' W 076°36'3 3.8
2017-Aug-10 10:20N 39°14' W 076°33'2 5.7
2017-Aug-10 09:57N 39°13' W 076°31'510.4
2017-Aug-10 09:31N 39°11' W 076°26'714.0
2017-Aug-10 09:00N 39°04' W 076°24'815.6
2017-Aug-10 08:30N 38°56' W 076°24'816.1
2017-Aug-10 08:00N 38°48' W 076°25'1016.4
2017-Aug-10 07:24N 38°38' W 076°25'716.1
2017-Aug-10 06:58N 38°31' W 076°25'816.8
2017-Aug-10 06:30N 38°24' W 076°21'714.1
2017-Aug-10 06:00N 38°17' W 076°18'816.7
2017-Aug-10 05:30N 38°10' W 076°14'917.3
2017-Aug-10 05:01N 38°01' W 076°12'917.2
2017-Aug-10 04:30N 37°53' W 076°09'1017.1
2017-Aug-10 03:56N 37°43' W 076°11'1416.4
2017-Aug-10 03:04N 37°30' W 076°03'116.9
2017-Aug-10 03:00N 37°30' W 076°03'917.7
2017-Aug-10 02:30N 37°21' W 076°05'1319.3
2017-Aug-10 01:50N 37°08' W 076°08'720.5
2017-Aug-10 01:30N 37°03' W 076°04'917.6
2017-Aug-10 01:00N 36°56' W 075°56'  
2017-Aug-07 14:00N 39°14' W 076°32'2 4.4
2017-Aug-07 13:30N 39°12' W 076°30'3 5.6
2017-Aug-07 13:00N 39°14' W 076°33'0 0.3
2017-Aug-07 12:30N 39°14' W 076°33'3 5.9
2017-Aug-07 12:00N 39°16' W 076°36'3 6.7
2017-Aug-07 11:30N 39°14' W 076°33'2 3.8
2017-Aug-07 11:00N 39°15' W 076°34'5 9.1
2017-Aug-07 10:30N 39°12' W 076°30'3 6.2
2017-Aug-07 10:00N 39°14' W 076°33'1 2.7
2017-Aug-07 09:30N 39°15' W 076°34'1 1.1
2017-Aug-07 09:00N 39°15' W 076°35'1 1.5
2017-Aug-07 08:30N 39°15' W 076°36'0 0.5
2017-Aug-07 08:00N 39°16' W 076°36'2 3.8
2017-Aug-07 07:30N 39°15' W 076°34'2 4.1
2017-Aug-07 07:00N 39°16' W 076°36'5 9.7
2017-Aug-07 06:30N 39°13' W 076°31'5 9.8
2017-Aug-07 06:00N 39°16' W 076°36'612.6
2017-Aug-07 05:30N 39°12' W 076°30'612.6
2017-Aug-07 05:00N 39°16' W 076°36'0 0.0
2017-Aug-07 04:30N 39°16' W 076°36'3 6.7
2017-Aug-07 04:00N 39°14' W 076°33'1 1.5
2017-Aug-07 03:30N 39°14' W 076°33'5 9.9
2017-Aug-07 03:00N 39°11' W 076°28'4 7.5
2017-Aug-07 02:30N 39°13' W 076°32'3 4.3
2017-Aug-07 01:50N 39°15' W 076°35'0 0.8
2017-Aug-07 01:30N 39°15' W 076°35'1 2.1
2017-Aug-07 01:00N 39°16' W 076°36'713.1
2017-Aug-07 00:30N 39°12' W 076°29'611.3
2017-Aug-07 00:00N 39°15' W 076°35'1 2.3
2017-Aug-06 23:30N 39°16' W 076°36'0 0.3
2017-Aug-06 23:00N 39°16' W 076°36'2 4.9
2017-Aug-06 22:30N 39°14' W 076°33'3 5.2
2017-Aug-06 22:00N 39°16' W 076°36'3 6.7
2017-Aug-06 21:30N 39°14' W 076°33'2 3.4
2017-Aug-06 21:00N 39°13' W 076°31'5 9.5
2017-Aug-06 20:30N 39°16' W 076°36'816.0
2017-Aug-06 20:00N 39°11' W 076°27'612.3
2017-Aug-06 19:30N 39°15' W 076°34'3 6.3
2017-Aug-06 19:00N 39°12' W 076°31'4 7.9
2017-Aug-06 18:30N 39°15' W 076°34'1 2.5
2017-Aug-06 18:00N 39°15' W 076°33'4 7.1
2017-Aug-06 17:30N 39°12' W 076°30'611.2
2017-Aug-06 17:00N 39°15' W 076°36'2 3.3
2017-Aug-06 16:30N 39°15' W 076°34'5 9.7
2017-Aug-06 16:00N 39°12' W 076°29'713.5
2017-Aug-06 15:30N 39°16' W 076°36'1 1.2
2017-Aug-06 15:00N 39°15' W 076°35'1 2.5
2017-Aug-06 14:30N 39°15' W 076°34'3 5.8
2017-Aug-06 14:00N 39°13' W 076°32'3 6.8
2017-Aug-06 13:30N 39°15' W 076°34'0 0.4
2017-Aug-06 13:00N 39°15' W 076°35'715.0
2017-Aug-06 12:30N 39°11' W 076°27'3 5.4
2017-Aug-06 12:00N 39°12' W 076°30'3 6.7
2017-Aug-06 11:30N 39°14' W 076°33'0 0.6
2017-Aug-06 11:00N 39°15' W 076°33'2 4.7
2017-Aug-06 10:30N 39°16' W 076°36'2 4.6
2017-Aug-06 10:00N 39°15' W 076°33'3 5.3
2017-Aug-06 09:30N 39°13' W 076°31'3 6.3
2017-Aug-06 09:00N 39°15' W 076°34'1 2.9
2017-Aug-06 08:30N 39°14' W 076°33'3 6.0
2017-Aug-06 08:00N 39°16' W 076°36'1 1.2
2017-Aug-06 07:30N 39°15' W 076°35'1 1.5
2017-Aug-06 07:00N 39°16' W 076°36'4 7.5
2017-Aug-06 06:30N 39°13' W 076°32'4 7.3
2017-Aug-06 06:00N 39°16' W 076°36'0 0.1
2017-Aug-06 05:30N 39°16' W 076°36'1 1.4
2017-Aug-06 05:00N 39°15' W 076°35'0 0.8
2017-Aug-06 04:30N 39°15' W 076°36'3 5.3
2017-Aug-06 04:00N 39°14' W 076°33'0 1.0
2017-Aug-06 03:30N 39°14' W 076°33'1 1.4
2017-Aug-06 03:00N 39°15' W 076°34'1 1.8
2017-Aug-06 02:30N 39°15' W 076°35'1 2.1
2017-Aug-06 02:00N 39°16' W 076°36'3 6.1
2017-Aug-06 01:30N 39°14' W 076°33'2 4.5
2017-Aug-06 01:00N 39°12' W 076°31'510.5
2017-Aug-06 00:30N 39°16' W 076°36'2 3.2
2017-Aug-06 00:00N 39°15' W 076°34'2 3.2
2017-Aug-05 23:30N 39°16' W 076°36'2 3.2
2017-Aug-05 23:00N 39°15' W 076°34'713.9
2017-Aug-05 22:30N 39°11' W 076°27'917.0
2017-Aug-05 22:00N 39°16' W 076°36'815.9
2017-Aug-05 21:30N 39°11' W 076°28'4 7.9
2017-Aug-05 21:00N 39°13' W 076°32'3 6.8
2017-Aug-05 20:30N 39°15' W 076°36'2 4.6
2017-Aug-05 20:00N 39°14' W 076°33'3 6.3
2017-Aug-05 19:30N 39°12' W 076°30'4 8.5
2017-Aug-05 19:00N 39°15' W 076°34'1 2.3
2017-Aug-05 18:30N 39°14' W 076°33'1 1.9
2017-Aug-05 18:00N 39°15' W 076°34'2 3.2
2017-Aug-05 17:30N 39°14' W 076°32'2 4.5
2017-Aug-05 17:00N 39°15' W 076°34'1 2.6
2017-Aug-05 16:30N 39°14' W 076°33'0 0.2
2017-Aug-05 16:00N 39°14' W 076°33'0 0.8
2017-Aug-05 15:30N 39°14' W 076°33'3 6.2
2017-Aug-05 15:00N 39°16' W 076°36'0 0.0
2017-Aug-05 14:30N 39°16' W 076°36'0 0.0
2017-Aug-05 14:00N 39°16' W 076°36'4 7.1
2017-Aug-05 13:30N 39°14' W 076°32'1 2.8
2017-Aug-05 13:00N 39°15' W 076°33'1 1.5
2017-Aug-05 12:30N 39°14' W 076°33'3 5.9
2017-Aug-05 12:00N 39°16' W 076°36'0 0.0
2017-Aug-05 11:30N 39°16' W 076°36'4 7.1
2017-Aug-05 11:00N 39°14' W 076°32'3 5.9
2017-Aug-05 10:31N 39°15' W 076°35'4 7.1
2017-Aug-05 10:00N 39°13' W 076°32'510.1
2017-Aug-05 09:31N 39°11' W 076°26'4 8.4
2017-Aug-05 09:00N 39°13' W 076°31'1632.2
2017-Aug-05 08:30N 38°58' W 076°23'815.4
2017-Aug-05 08:00N 38°50' W 076°24'2548.5
2017-Aug-05 07:30N 39°14' W 076°33'3 6.5
2017-Aug-05 07:00N 39°12' W 076°30'4 8.1
2017-Aug-05 06:30N 39°15' W 076°34'2 3.7
2017-Aug-05 06:00N 39°14' W 076°32'1 2.4
2017-Aug-05 05:30N 39°15' W 076°33'0 0.1
2017-Aug-05 05:00N 39°15' W 076°33'1 2.5
2017-Aug-05 04:30N 39°14' W 076°32'1 1.0
2017-Aug-05 04:00N 39°14' W 076°33'3 4.7
2017-Aug-05 03:25N 39°12' W 076°30'2 5.5
2017-Aug-05 03:00N 39°14' W 076°32'1 2.1
2017-Aug-05 02:30N 39°14' W 076°33'1 1.6
2017-Aug-05 02:00N 39°15' W 076°34'1 2.7
2017-Aug-05 01:30N 39°14' W 076°33'3 5.6
2017-Aug-05 01:00N 39°12' W 076°30'135275.4
2017-Aug-05 00:30N 36°59' W 076°01'137267.4
2017-Aug-05 00:00N 39°14' W 076°33'1 2.1
2017-Aug-04 23:30N 39°15' W 076°33'2 3.2
2017-Aug-04 23:00N 39°13' W 076°32'1 1.7
2017-Aug-04 22:30N 39°14' W 076°33'3 6.0
2017-Aug-04 22:00N 39°12' W 076°30'0 0.0
2017-Aug-04 21:30N 39°12' W 076°30'2 4.6
2017-Aug-04 21:00N 39°14' W 076°32'2 4.6
2017-Aug-04 20:30N 39°12' W 076°30'4 7.2
2017-Aug-04 20:00N 39°15' W 076°33'1 1.1
2017-Aug-04 19:30N 39°14' W 076°33'1 1.5
2017-Aug-04 19:00N 39°15' W 076°33'0 0.7
2017-Aug-04 18:30N 39°14' W 076°33'1 1.2
2017-Aug-04 18:00N 39°14' W 076°33'1 2.0
2017-Aug-04 17:30N 39°15' W 076°34'0 0.4
2017-Aug-04 17:00N 39°15' W 076°34'2 3.7
2017-Aug-04 16:30N 39°14' W 076°32'150309.7
2017-Aug-04 16:00N 37°54' W 073°49'715.0
2017-Aug-04 15:31N 37°58' W 073°41'155300.1
2017-Aug-04 15:00N 39°14' W 076°33'1 0.9
2017-Aug-04 14:00N 39°15' W 076°34'3 6.1
2017-Aug-04 13:30N 39°13' W 076°31'2 3.6
2017-Aug-04 13:00N 39°14' W 076°33'0 0.0
2017-Aug-04 12:30N 39°14' W 076°33'0 0.0
2017-Aug-04 12:00N 39°14' W 076°33'3 6.0
2017-Aug-04 11:30N 39°12' W 076°30'0 0.0
2017-Aug-04 11:00N 39°12' W 076°30'0 0.0
2017-Aug-04 10:30N 39°12' W 076°30'3 6.9
2017-Aug-04 10:00N 39°14' W 076°33'3 6.9
2017-Aug-04 09:30N 39°12' W 076°30'2 4.3
2017-Aug-04 09:00N 39°13' W 076°32'2 4.3
2017-Aug-04 08:30N 39°12' W 076°30'4 7.5
2017-Aug-04 08:00N 39°15' W 076°33'1 1.3
2017-Aug-04 07:30N 39°14' W 076°33'1 2.9
2017-Aug-04 07:00N 39°15' W 076°34'1 2.7
2017-Aug-04 06:30N 39°14' W 076°33'0 0.3
2017-Aug-04 06:00N 39°14' W 076°33'3 6.7
2017-Aug-04 05:30N 39°12' W 076°30'2 4.8
2017-Aug-04 05:00N 39°14' W 076°32'0 0.3
2017-Aug-04 04:30N 39°14' W 076°32'3 5.1
2017-Aug-04 04:00N 39°12' W 076°30'2 4.7
2017-Aug-04 03:30N 39°14' W 076°32'1 1.8
2017-Aug-04 03:00N 39°14' W 076°33'0 0.5
2017-Aug-04 02:30N 39°14' W 076°33'3 6.0
2017-Aug-04 02:00N 39°12' W 076°30'2 4.3
2017-Aug-04 01:30N 39°13' W 076°32'0 0.0
2017-Aug-04 01:00N 39°13' W 076°32'1 1.2
2017-Aug-04 00:30N 39°14' W 076°33'3 5.5
2017-Aug-04 00:00N 39°12' W 076°30'3 5.5
2017-Aug-03 23:30N 39°14' W 076°33'0 0.0
2017-Aug-03 23:00N 39°14' W 076°33'1 2.7
2017-Aug-03 22:30N 39°15' W 076°34'1 2.7
2017-Aug-03 22:00N 39°14' W 076°33'0 0.8
2017-Aug-03 21:30N 39°14' W 076°32'1 1.8
2017-Aug-03 21:00N 39°13' W 076°32'2 4.7
2017-Aug-03 20:30N 39°15' W 076°34'1 1.5
2017-Aug-03 20:00N 39°14' W 076°33'0 0.0
2017-Aug-03 19:30N 39°14' W 076°33'0 0.5
2017-Aug-03 19:00N 39°14' W 076°33'3 6.7
2017-Aug-03 18:30N 39°12' W 076°30'4 7.7
2017-Aug-03 18:00N 39°15' W 076°34'4 7.7
2017-Aug-03 17:30N 39°12' W 076°30'1 2.9
2017-Aug-03 17:00N 39°13' W 076°32'2 3.1
2017-Aug-03 16:30N 39°14' W 076°33'0 0.0
2017-Aug-03 16:00N 39°14' W 076°33'2 3.7
2017-Aug-03 15:30N 39°13' W 076°31'2 3.1
2017-Aug-03 15:00N 39°14' W 076°33'1 1.4
2017-Aug-03 14:00N 39°15' W 076°34'0 1.0
2017-Aug-03 13:30N 39°15' W 076°33'0 0.4
2017-Aug-03 13:00N 39°15' W 076°34'1 2.2
2017-Aug-03 12:30N 39°14' W 076°33'1 1.8
2017-Aug-03 12:00N 39°15' W 076°33'0 0.3
2017-Aug-03 11:30N 39°15' W 076°33'2 3.0
2017-Aug-03 11:00N 39°14' W 076°32'1 1.3
2017-Aug-03 10:30N 39°14' W 076°33'0 0.3
2017-Aug-03 10:00N 39°14' W 076°33'1 1.0
2017-Aug-03 09:30N 39°14' W 076°33'1 1.4
2017-Aug-03 09:00N 39°14' W 076°32'0 0.8
2017-Aug-03 08:30N 39°13' W 076°32'0 0.4
2017-Aug-03 08:00N 39°14' W 076°32'2 4.0
2017-Aug-03 07:25N 39°12' W 076°30'2 5.2
2017-Aug-03 07:00N 39°13' W 076°32'1 1.8
2017-Aug-03 06:30N 39°14' W 076°33'0 0.6
2017-Aug-03 06:00N 39°14' W 076°33'0 0.9
2017-Aug-03 05:30N 39°14' W 076°32'0 0.4
2017-Aug-03 05:00N 39°13' W 076°32'1 1.2
2017-Aug-03 04:30N 39°14' W 076°33'1 2.5
2017-Aug-03 04:00N 39°15' W 076°34'3 5.2
2017-Aug-03 03:30N 39°13' W 076°32'3 6.0
2017-Aug-03 03:00N 39°15' W 076°34'1 2.9
2017-Aug-03 02:30N 39°14' W 076°33'0 0.3
2017-Aug-03 02:00N 39°14' W 076°33'0 0.8
2017-Aug-03 01:30N 39°14' W 076°33'3 5.5
2017-Aug-03 01:00N 39°12' W 076°30'2 4.3
2017-Aug-03 00:30N 39°13' W 076°32'2 3.6
2017-Aug-03 00:00N 39°15' W 076°34'2 3.4
2017-Aug-02 23:30N 39°14' W 076°32'2 4.0
2017-Aug-02 23:00N 39°15' W 076°34'1 1.9
2017-Aug-02 22:30N 39°14' W 076°33'0 0.7
2017-Aug-02 22:00N 39°14' W 076°33'0 1.0
2017-Aug-02 21:30N 39°15' W 076°33'1 2.7
2017-Aug-02 21:00N 39°13' W 076°32'1 1.2
2017-Aug-02 20:30N 39°14' W 076°33'1 2.4
2017-Aug-02 20:00N 39°15' W 076°34'0 0.9
2017-Aug-02 19:30N 39°15' W 076°34'2 3.2
2017-Aug-02 19:00N 39°14' W 076°33'0 0.9
2017-Aug-02 18:30N 39°14' W 076°32'1 2.0
2017-Aug-02 18:00N 39°14' W 076°33'0 0.5
2017-Aug-02 17:30N 39°14' W 076°33'2 3.6
2017-Aug-02 17:00N 39°13' W 076°31'0 1.0
2017-Aug-02 16:30N 39°12' W 076°31'1 2.7
2017-Aug-02 16:00N 39°13' W 076°32'1 2.2
2017-Aug-02 15:30N 39°14' W 076°33'0 0.9
2017-Aug-02 15:00N 39°15' W 076°33'1 0.8
2017-Aug-02 13:30N 39°14' W 076°32'0 0.3
2017-Aug-02 13:00N 39°14' W 076°32'1 1.9
2017-Aug-02 12:30N 39°14' W 076°33'1 2.3
2017-Aug-02 12:00N 39°15' W 076°34'2 3.0
2017-Aug-02 11:30N 39°14' W 076°33'1 1.2
2017-Aug-02 11:00N 39°15' W 076°33'1 2.4
2017-Aug-02 10:30N 39°14' W 076°32'2 4.8
2017-Aug-02 10:00N 39°12' W 076°30'4 7.4
2017-Aug-02 09:30N 39°15' W 076°33'0 0.5
2017-Aug-02 09:00N 39°15' W 076°34'0 0.6
2017-Aug-02 08:30N 39°15' W 076°33'0 0.3
2017-Aug-02 08:00N 39°14' W 076°33'1 2.6
2017-Aug-02 07:30N 39°13' W 076°32'0 0.5
2017-Aug-02 07:00N 39°14' W 076°32'1 2.9
2017-Aug-02 06:30N 39°15' W 076°34'4 7.7
2017-Aug-02 06:00N 39°12' W 076°30'3 5.5
2017-Aug-02 05:30N 39°14' W 076°33'2 3.1
2017-Aug-02 05:00N 39°15' W 076°34'1 1.6
2017-Aug-02 04:30N 39°15' W 076°33'0 1.0
2017-Aug-02 04:00N 39°14' W 076°33'1 1.7
2017-Aug-02 03:30N 39°13' W 076°32'1 2.4
2017-Aug-02 03:00N 39°14' W 076°33'3 5.1
2017-Aug-02 02:30N 39°12' W 076°31'3 5.3
2017-Aug-02 02:00N 39°14' W 076°33'  

Dump ship's entire track history